Time;durP1;ratioP1;P1;durP2;ratioP2;P2;SDS_P1;SDS_P2;PMS_P1;PMS_P2;Temp;Humidity;BMP_temperature;BMP_pressure;BME280_temperature;BME280_humidity;BME280_pressure;Samples;Min_cycle;Max_cycle;Signal;HPM_P1;HPM_P2
2023/09/15 00:59:43;;;;;;;;;;;;;;;16.94;75.86;99579.73;112360;1231;94798;-94
2023/09/15 01:09:39;;;;;;;;;;;;;;;;;;;;;
2023/09/15 03:20:27;;;;;;;;;;;;;;;;;;;;;
2023/09/15 04:02:39;;;;;;;;;;;;;;;15.69;75.53;99667.59;110413;1231;96567;-90
2023/09/15 04:05:10;;;;;;;;;;;;;;;15.67;75.49;99671.30;109857;1232;96558;-92
2023/09/15 04:07:38;;;;;;;;;;;;;;;15.65;75.32;99675.45;108891;1240;108909;-92
2023/09/15 04:10:22;;;;;;;;;;;;;;;;;;;;;
2023/09/15 04:13:32;;;;;;;;;;;;;;;15.59;75.27;99679.63;109652;1237;107503;-92
2023/09/15 04:20:04;;;;;;;;;;;;;;;15.51;75.31;99683.67;110193;1231;96485;-91
2023/09/15 04:22:55;;;;;;;;;;;;;;;;;;;;;
2023/09/15 04:35:31;;;;;;;;;;;;;;;15.38;75.38;99695.20;109709;1234;96486;-92
2023/09/15 04:41:23;;;;;;;;;;;;;;;15.34;75.28;99703.34;109926;1233;96832;-92
2023/09/15 04:43:53;;;;;;;;;;;;;;;15.32;75.17;99705.61;109092;1236;107317;-91
2023/09/15 04:46:26;;;;;;;;;;;;;;;15.31;75.19;99708.75;109081;1238;96586;-91
2023/09/15 04:49:57;;;;;;;;;;;;;;;;;;;;;
2023/09/15 04:53:07;;;;;;;;;;;;;;;;;;;;;
2023/09/15 04:56:03;;;;;;;;;;;;;;;;;;;;;
2023/09/15 04:58:57;;;;;;;;;;;;;;;15.23;75.20;99720.36;109579;1237;107426;-91
2023/09/15 05:01:32;;;;;;;;;;;;;;;15.21;75.15;99727.65;109369;1231;97433;-91
2023/09/15 05:08:16;;;;;;;;;;;;;;;15.16;75.21;99729.07;110329;1235;110326;-91
2023/09/15 05:10:57;;;;;;;;;;;;;;;15.16;75.29;99725.66;110503;1231;96516;-90
2023/09/15 05:13:45;;;;;;;;;;;;;;;15.18;75.18;99726.80;109976;1231;106500;-91
2023/09/15 05:16:20;;;;;;;;;;;;;;;15.18;75.25;99729.30;109856;1231;96572;-91
2023/09/15 05:18:47;;;;;;;;;;;;;;;15.18;75.19;99733.57;109622;1231;96656;-93
2023/09/15 05:21:16;;;;;;;;;;;;;;;15.19;75.10;99737.81;109591;1235;110984;-91
2023/09/15 05:27:01;;;;;;;;;;;;;;;15.16;75.13;99741.24;109842;1231;109425;-92
2023/09/15 05:29:31;;;;;;;;;;;;;;;15.16;75.17;99745.54;109855;1237;96599;-90
2023/09/15 05:32:38;;;;;;;;;;;;;;;15.13;75.04;99746.65;109806;1237;95861;-92
2023/09/15 05:35:47;;;;;;;;;;;;;;;15.13;75.08;99747.24;109813;1234;109137;-91
2023/09/15 05:42:25;;;;;;;;;;;;;;;15.15;75.04;99755.98;109684;1234;109392;-91
2023/09/15 05:45:42;;;;;;;;;;;;;;;15.17;75.06;99760.83;109902;1231;96509;-91
2023/09/15 05:59:28;;;;;;;;;;;;;;;15.22;75.14;99768.29;109470;1231;106949;-91
2023/09/15 06:02:00;;;;;;;;;;;;;;;15.24;75.11;99768.16;109363;1237;96520;-92
2023/09/15 06:04:53;;;;;;;;;;;;;;;15.25;75.30;99770.42;109606;1234;96581;-90
2023/09/15 06:08:03;;;;;;;;;;;;;;;15.26;75.30;99772.45;109339;1231;108979;-91
2023/09/15 06:10:38;;;;;;;;;;;;;;;15.28;75.27;99776.56;109428;1233;96556;-90
2023/09/15 06:16:50;;;;;;;;;;;;;;;15.32;75.20;99783.14;109408;1236;96505;-91
2023/09/15 06:19:17;;;;;;;;;;;;;;;15.35;75.21;99784.21;109275;1237;96379;-91
2023/09/15 06:22:15;;;;;;;;;;;;;;;15.40;75.35;99782.73;109384;1231;109510;-91
2023/09/15 06:24:51;;;;;;;;;;;;;;;15.46;75.39;99784.19;109502;1236;96573;-92
2023/09/15 06:27:18;;;;;;;;;;;;;;;15.50;75.40;99784.98;109077;1240;107648;-92
2023/09/15 06:33:07;;;;;;;;;;;;;;;15.50;75.25;99787.69;109312;1238;96695;-91
2023/09/15 06:42:30;;;;;;;6.50;3.00;;;;;;;15.69;75.15;99792.35;102426;1305;635251;-81
2023/09/15 06:44:58;;;;;;;6.70;3.50;;;;;;;15.69;75.11;99792.52;105306;1273;94787;-78
2023/09/15 06:47:25;;;;;;;7.10;3.10;;;;;;;15.71;75.17;99789.73;104565;1275;94337;-79
2023/09/15 06:49:54;;;;;;;8.10;3.20;;;;;;;15.73;75.13;99790.25;104578;1275;107712;-79
2023/09/15 06:52:21;;;;;;;8.30;3.30;;;;;;;15.78;75.31;99788.55;105027;1269;94793;-79
2023/09/15 06:54:49;;;;;;;9.80;3.60;;;;;;;15.84;75.35;99785.58;104919;1269;107604;-79
2023/09/15 06:57:17;;;;;;;6.00;3.00;;;;;;;15.89;75.34;99783.91;104862;1266;196073;-79
2023/09/15 06:59:45;;;;;;;6.40;3.10;;;;;;;15.93;75.31;99786.63;105200;1265;94238;-80
2023/09/15 07:02:13;;;;;;;5.90;2.90;;;;;;;15.98;75.28;99781.27;104989;1265;107355;-79
2023/09/15 07:04:45;;;;;;;7.50;3.60;;;;;;;16.04;75.33;99783.44;105168;1266;94312;-78
2023/09/15 07:07:13;;;;;;;8.40;3.40;;;;;;;16.09;75.34;99781.42;105415;1267;107709;-80
2023/09/15 07:09:41;;;;;;;7.30;3.00;;;;;;;16.13;75.34;99781.03;105180;1263;95336;-80
2023/09/15 07:12:09;;;;;;;5.60;3.10;;;;;;;16.14;75.20;99778.64;104954;1268;95207;-78
2023/09/15 07:14:37;;;;;;;8.70;3.30;;;;;;;16.18;75.32;99785.60;105360;1265;108558;-78
2023/09/15 07:17:05;;;;;;;5.60;2.90;;;;;;;16.22;75.48;99785.14;105253;1266;96108;-78
2023/09/15 07:19:33;;;;;;;6.40;3.00;;;;;;;16.27;75.32;99787.43;105197;1265;107221;-78
2023/09/15 07:22:01;;;;;;;7.70;3.00;;;;;;;16.33;75.28;99786.00;104841;1266;96207;-78
2023/09/15 07:24:29;;;;;;;10.10;3.10;;;;;;;16.37;75.25;99782.06;104609;1264;95327;-80
2023/09/15 07:26:57;;;;;;;7.60;3.30;;;;;;;16.42;75.18;99782.23;104835;1271;107049;-80
2023/09/15 07:29:28;;;;;;;6.10;2.90;;;;;;;16.43;75.07;99780.33;105012;1267;95356;-80
2023/09/15 07:31:57;;;;;;;6.30;2.70;;;;;;;16.45;75.16;99780.88;104616;1266;107124;-80
2023/09/15 07:34:25;;;;;;;9.40;3.50;;;;;;;16.47;75.13;99780.13;105007;1263;96209;-81
2023/09/15 07:36:53;;;;;;;7.20;3.10;;;;;;;16.52;75.31;99780.46;104878;1265;95268;-80
2023/09/15 07:39:21;;;;;;;3.40;2.80;;;;;;;16.60;75.26;99779.07;104640;1265;108807;-81
2023/09/15 07:41:49;;;;;;;5.40;3.10;;;;;;;16.66;75.27;99781.34;105029;1267;95271;-79
2023/09/15 07:44:17;;;;;;;6.20;3.20;;;;;;;16.72;75.24;99787.50;104634;1269;107633;-81
2023/09/15 07:46:45;;;;;;;5.30;2.90;;;;;;;16.76;75.26;99786.75;104731;1266;96197;-81
2023/09/15 07:49:13;;;;;;;8.70;3.00;;;;;;;16.84;75.15;99787.56;105049;1266;95234;-80
2023/09/15 07:51:41;;;;;;;7.80;3.00;;;;;;;16.91;75.20;99787.81;104740;1275;108117;-80
2023/09/15 07:54:09;;;;;;;4.90;2.40;;;;;;;17.00;75.21;99788.55;104850;1266;95259;-80
2023/09/15 07:56:37;;;;;;;7.40;2.90;;;;;;;17.09;75.01;99790.09;104823;1277;107614;-79
2023/09/15 07:59:06;;;;;;;7.00;2.90;;;;;;;17.20;75.12;99788.93;104730;1268;95270;-79
2023/09/15 08:01:34;;;;;;;2.60;2.00;;;;;;;17.28;75.09;99786.79;105265;1265;95270;-79
2023/09/15 08:04:02;;;;;;;4.20;2.30;;;;;;;17.35;74.94;99791.83;104786;1265;108403;-80
2023/09/15 08:06:31;;;;;;;6.50;2.60;;;;;;;17.45;74.82;99790.47;104721;1266;95186;-77
2023/09/15 08:08:58;;;;;;;6.10;2.70;;;;;;;17.57;74.85;99790.30;104736;1276;107426;-79
2023/09/15 08:11:26;;;;;;;5.40;2.40;;;;;;;17.66;74.68;99790.00;105038;1279;95288;-80
2023/09/15 08:13:54;;;;;;;4.40;2.40;;;;;;;17.66;74.46;99793.94;104832;1266;95253;-78
2023/09/15 08:16:22;;;;;;;4.50;2.60;;;;;;;17.66;74.50;99796.45;104860;1265;108674;-81
2023/09/15 08:18:50;;;;;;;4.30;2.50;;;;;;;17.64;74.11;99796.14;104600;1276;96104;-78
2023/09/15 08:21:18;;;;;;;6.80;3.00;;;;;;;17.63;74.32;99796.00;104831;1266;107391;-79
2023/09/15 08:23:45;;;;;;;6.50;2.80;;;;;;;17.63;74.12;99797.27;104670;1266;95359;-78
2023/09/15 08:26:14;;;;;;;5.00;2.50;;;;;;;17.68;74.06;99796.23;104552;1264;95774;-78
2023/09/15 08:28:42;;;;;;;5.30;2.80;;;;;;;17.70;73.75;99798.61;104739;1266;108533;-80
2023/09/15 08:31:10;;;;;;;6.40;3.00;;;;;;;17.69;73.74;99801.53;104801;1266;95551;-79
2023/09/15 08:33:38;;;;;;;5.80;2.80;;;;;;;17.74;73.81;99797.39;104788;1276;107340;-80
2023/09/15 08:36:06;;;;;;;5.00;2.50;;;;;;;17.81;73.75;99794.58;104836;1269;95284;-79
2023/09/15 08:38:33;;;;;;;5.90;2.50;;;;;;;17.86;73.58;99794.98;104821;1265;95289;-78
2023/09/15 08:41:12;;;;;;;4.80;2.40;;;;;;;17.90;73.62;99793.92;104861;1266;108684;-81
2023/09/15 08:43:41;;;;;;;6.50;2.90;;;;;;;17.97;73.53;99791.88;104802;1266;95199;-80
2023/09/15 08:46:11;;;;;;;6.60;3.10;;;;;;;18.05;73.48;99793.52;104689;1281;107707;-78
2023/09/15 08:48:41;;;;;;;6.20;2.70;;;;;;;18.06;73.25;99798.73;104992;1268;96224;-78
2023/09/15 08:51:09;;;;;;;5.80;2.70;;;;;;;18.01;73.02;99799.02;104758;1270;95289;-79
2023/09/15 08:53:39;;;;;;;8.10;2.80;;;;;;;17.99;72.97;99799.73;104909;1266;108818;-82
2023/09/15 08:56:08;;;;;;;6.10;2.80;;;;;;;18.00;73.02;99802.54;104684;1277;95477;-78
2023/09/15 08:58:37;;;;;;;6.70;2.70;;;;;;;18.04;72.82;99804.38;104886;1269;107667;-77
2023/09/15 09:01:07;;;;;;;8.20;3.40;;;;;;;18.07;72.64;99800.63;104820;1276;95307;-78
2023/09/15 09:03:37;;;;;;;7.10;3.00;;;;;;;18.10;72.57;99800.21;105248;1266;95253;-77
2023/09/15 09:06:11;;;;;;;8.60;2.90;;;;;;;18.11;72.42;99798.14;105159;1262;110177;-78
2023/09/15 09:08:41;;;;;;;6.70;2.80;;;;;;;18.12;72.32;99802.33;105073;1261;95230;-78
2023/09/15 09:11:09;;;;;;;9.40;2.90;;;;;;;18.15;72.25;99805.80;104805;1268;107654;-76
2023/09/15 09:13:39;;;;;;;6.10;2.70;;;;;;;18.20;72.13;99804.30;104998;1263;95201;-79
2023/09/15 09:16:13;;;;;;;5.60;2.40;;;;;;;18.20;71.83;99807.16;104883;1270;95266;-77
2023/09/15 09:18:41;;;;;;;6.20;2.40;;;;;;;18.20;71.76;99807.73;105075;1261;108560;-80
2023/09/15 09:21:10;;;;;;;6.00;2.50;;;;;;;18.17;71.53;99806.80;104987;1258;95824;-78
2023/09/15 09:23:38;;;;;;;4.90;2.40;;;;;;;18.16;71.60;99808.95;104715;1262;105566;-78
2023/09/15 09:26:12;;;;;;;7.70;2.80;;;;;;;18.14;71.36;99811.77;104956;1266;95477;-77
2023/09/15 09:28:40;;;;;;;6.20;2.80;;;;;;;18.11;71.26;99805.65;105156;1260;95288;-77
2023/09/15 09:31:09;;;;;;;4.50;2.50;;;;;;;18.09;71.31;99808.55;105006;1263;108198;-77
2023/09/15 09:33:38;;;;;;;4.80;2.60;;;;;;;18.05;71.08;99806.74;105035;1263;95268;-77
2023/09/15 09:36:13;;;;;;;4.10;2.50;;;;;;;18.02;70.96;99807.26;105075;1264;106614;-77
2023/09/15 09:38:47;;;;;;;7.10;2.80;;;;;;;17.98;70.84;99810.93;105081;1257;95304;-77
2023/09/15 09:41:28;;;;;;;5.40;2.60;;;;;;;17.93;70.72;99813.89;105081;1263;95299;-77
2023/09/15 09:44:03;;;;;;;6.30;2.60;;;;;;;17.89;70.51;99811.09;104873;1263;108175;-76
2023/09/15 09:46:32;;;;;;;6.30;3.00;;;;;;;17.87;70.42;99808.89;104933;1263;95262;-76
2023/09/15 09:49:00;;;;;;;5.70;2.60;;;;;;;17.90;70.40;99808.63;105072;1263;107579;-76
2023/09/15 09:51:29;;;;;;;5.90;2.70;;;;;;;17.90;70.16;99810.98;105076;1260;96111;-76
2023/09/15 09:53:56;;;;;;;6.20;2.50;;;;;;;17.85;70.09;99811.95;105175;1264;95282;-76
2023/09/15 09:56:24;;;;;;;7.70;3.00;;;;;;;17.85;69.99;99809.63;105051;1257;108558;-76
2023/09/15 09:58:52;;;;;;;5.90;2.80;;;;;;;17.92;70.09;99805.58;105011;1264;95294;-76
2023/09/15 10:01:20;;;;;;;8.00;2.50;;;;;;;18.00;69.87;99807.51;104824;1263;107270;-76
2023/09/15 10:03:49;;;;;;;4.90;2.20;;;;;;;18.08;69.89;99803.27;105010;1264;95441;-76
2023/09/15 10:06:18;;;;;;;4.40;2.60;;;;;;;18.15;69.74;99804.59;105182;1262;95247;-77
2023/09/15 10:08:46;;;;;;;4.20;2.50;;;;;;;18.18;69.31;99806.45;105087;1264;108702;-78
2023/09/15 10:11:16;;;;;;;5.10;2.40;;;;;;;18.20;69.35;99807.71;105256;1257;95855;-77
2023/09/15 10:13:45;;;;;;;6.30;2.80;;;;;;;18.22;69.05;99806.13;104991;1271;107153;-77
2023/09/15 10:16:14;;;;;;;3.70;2.00;;;;;;;18.24;69.07;99802.70;105406;1262;95196;-76
2023/09/15 10:18:44;;;;;;;4.90;2.60;;;;;;;18.23;68.90;99805.44;105348;1270;95211;-77
2023/09/15 10:21:13;;;;;;;8.30;2.60;;;;;;;18.23;68.91;99796.14;105303;1279;107631;-77
2023/09/15 10:23:41;;;;;;;4.60;2.60;;;;;;;18.27;68.66;99799.34;105446;1260;95225;-77
2023/09/15 10:26:10;;;;;;;5.00;2.60;;;;;;;18.31;68.61;99796.28;105454;1260;108278;-77
2023/09/15 10:28:45;;;;;;;4.30;2.40;;;;;;;18.37;68.54;99800.91;105469;1260;95073;-77
2023/09/15 10:31:13;;;;;;;3.80;2.30;;;;;;;18.38;68.41;99800.89;105399;1260;95251;-78
2023/09/15 10:33:41;;;;;;;5.50;2.30;;;;;;;18.35;68.09;99798.64;105445;1260;108506;-78
2023/09/15 10:36:15;;;;;;;5.30;2.30;;;;;;;18.32;68.10;99793.16;105508;1260;95154;-78
2023/09/15 10:38:45;;;;;;;4.60;2.20;;;;;;;18.32;68.18;99787.97;105209;1264;107678;-77
2023/09/15 10:41:27;;;;;;;5.80;2.50;;;;;;;18.36;68.12;99798.66;105190;1271;96705;-76
2023/09/15 10:43:57;;;;;;;7.10;2.70;;;;;;;18.35;67.99;99797.32;104976;1257;95225;-76
2023/09/15 10:46:36;;;;;;;5.60;2.80;;;;;;;18.33;67.87;99797.02;105052;1260;108536;-76
2023/09/15 10:49:18;;;;;;;5.10;2.30;;;;;;;18.30;67.59;99797.42;105131;1263;95319;-76
2023/09/15 10:52:00;;;;;;;4.10;2.50;;;;;;;18.34;67.69;99796.75;105099;1260;109242;-77
2023/09/15 10:54:33;;;;;;;6.90;2.90;;;;;;;18.38;67.65;99796.35;105195;1259;97826;-76
2023/09/15 10:57:02;;;;;;;5.20;2.90;;;;;;;18.42;67.53;99797.23;105006;1260;96661;-76
2023/09/15 10:59:30;;;;;;;5.00;2.50;;;;;;;18.44;67.38;99794.35;105096;1260;110860;-77
2023/09/15 11:01:58;;;;;;;4.40;2.30;;;;;;;18.44;67.20;99789.36;104830;1260;96643;-77
2023/09/15 11:04:28;;;;;;;6.00;2.60;;;;;;;18.43;67.26;99791.89;104872;1261;105265;-78
2023/09/15 11:06:57;;;;;;;5.20;2.50;;;;;;;18.45;67.12;99789.62;105218;1261;96634;-76
2023/09/15 11:09:25;;;;;;;5.50;2.50;;;;;;;18.45;66.97;99789.22;105163;1261;96534;-77
2023/09/15 11:11:54;;;;;;;5.50;2.40;;;;;;;18.40;66.70;99790.63;105091;1261;109538;-76
2023/09/15 11:14:23;;;;;;;3.50;1.90;;;;;;;18.37;66.75;99792.83;105074;1260;97830;-78
2023/09/15 11:16:57;;;;;;;5.80;2.40;;;;;;;18.40;66.54;99791.13;104997;1260;108281;-77
2023/09/15 11:19:30;;;;;;;4.40;2.30;;;;;;;18.42;66.45;99788.03;105261;1260;96629;-76
2023/09/15 11:22:04;;;;;;;4.50;2.30;;;;;;;18.49;66.51;99786.23;105206;1261;96614;-76
2023/09/15 11:24:33;;;;;;;3.70;2.20;;;;;;;18.56;66.37;99786.95;104933;1260;109901;-76
2023/09/15 11:27:02;;;;;;;4.50;2.60;;;;;;;18.64;66.41;99783.89;105456;1260;96501;-78
2023/09/15 11:29:31;;;;;;;6.20;2.60;;;;;;;18.70;66.20;99783.79;105419;1260;107736;-78
2023/09/15 11:32:00;;;;;;;5.00;2.30;;;;;;;18.77;66.26;99783.23;105692;1264;96632;-77
2023/09/15 11:34:29;;;;;;;7.00;2.70;;;;;;;18.81;66.03;99783.45;105176;1261;96632;-78
2023/09/15 11:37:01;;;;;;;4.60;2.20;;;;;;;18.87;66.00;99783.64;105087;1257;109485;-77
2023/09/15 11:39:29;;;;;;;4.80;2.30;;;;;;;18.91;65.75;99786.30;104902;1261;96738;-76
2023/09/15 11:41:57;;;;;;;5.40;2.60;;;;;;;18.96;65.76;99780.52;105305;1261;108664;-76
2023/09/15 11:44:29;;;;;;;4.90;2.50;;;;;;;19.01;65.74;99785.77;105109;1273;96676;-76
2023/09/15 11:47:01;;;;;;;5.80;2.70;;;;;;;19.04;65.49;99787.46;105227;1260;96581;-76
2023/09/15 11:49:30;;;;;;;4.10;2.30;;;;;;;19.03;65.49;99787.70;105113;1259;109955;-76
2023/09/15 11:51:59;;;;;;;4.70;2.50;;;;;;;19.02;65.35;99782.98;105118;1256;97458;-79
2023/09/15 11:54:27;;;;;;;3.50;2.10;;;;;;;19.01;65.26;99784.46;104784;1263;107155;-77
2023/09/15 11:56:56;;;;;;;5.90;2.70;;;;;;;19.01;64.99;99788.67;104995;1264;96683;-76
2023/09/15 11:59:25;;;;;;;5.80;2.50;;;;;;;18.93;64.49;99785.59;105153;1260;97243;-76
2023/09/15 12:01:54;;;;;;;4.20;2.30;;;;;;;18.89;64.79;99783.27;105041;1259;109754;-76
2023/09/15 12:04:24;;;;;;;5.50;2.10;;;;;;;18.89;64.71;99781.80;105204;1257;96888;-77
2023/09/15 12:06:54;;;;;;;7.30;2.10;;;;;;;18.90;64.72;99780.48;105254;1262;109130;-77
2023/09/15 12:09:22;;;;;;;7.30;2.20;;;;;;;18.90;64.45;99778.88;105054;1261;96610;-76
2023/09/15 12:11:52;;;;;;;4.00;2.40;;;;;;;18.91;64.54;99776.09;105141;1260;96727;-77
2023/09/15 12:14:19;;;;;;;6.00;2.50;;;;;;;18.91;64.41;99777.54;105218;1258;110060;-77
2023/09/15 12:16:47;;;;;;;6.40;2.10;;;;;;;18.90;64.26;99778.30;105238;1260;96628;-77
2023/09/15 12:19:19;;;;;;;4.50;2.40;;;;;;;18.87;64.20;99771.79;105063;1257;107355;-77
2023/09/15 12:21:55;;;;;;;5.10;2.40;;;;;;;18.87;64.14;99768.69;104907;1260;97174;-76
2023/09/15 12:24:25;;;;;;;4.90;2.20;;;;;;;18.89;63.92;99764.37;105186;1257;96610;-77
2023/09/15 12:26:54;;;;;;;5.40;2.10;;;;;;;18.90;64.03;99761.05;104922;1259;109693;-77
2023/09/15 12:29:22;;;;;;;4.70;2.90;;;;;;;18.91;64.04;99760.29;105064;1262;97926;-77
2023/09/15 12:31:50;;;;;;;6.10;3.00;;;;;;;18.91;63.77;99755.97;105023;1257;106603;-77
2023/09/15 12:34:22;;;;;;;3.40;1.80;;;;;;;18.90;63.54;99758.55;105091;1261;96614;-77
2023/09/15 12:36:55;;;;;;;4.00;2.50;;;;;;;18.88;63.53;99758.18;105342;1264;97806;-77
2023/09/15 12:39:24;;;;;;;5.60;2.50;;;;;;;18.90;63.42;99758.02;105048;1259;110029;-77
2023/09/15 12:42:05;;;;;;;5.50;2.40;;;;;;;18.92;63.47;99747.79;105035;1270;96530;-77
2023/09/15 12:44:36;;;;;;;6.60;2.70;;;;;;;18.94;63.36;99745.49;105025;1270;107160;-77
2023/09/15 12:47:04;;;;;;;5.70;2.60;;;;;;;18.94;63.33;99743.44;105189;1261;96743;-77
2023/09/15 12:49:32;;;;;;;5.20;2.30;;;;;;;18.95;63.44;99743.86;104908;1270;97806;-77
2023/09/15 12:52:00;;;;;;;7.80;2.70;;;;;;;18.97;63.26;99740.02;105028;1260;109949;-76
2023/09/15 12:54:28;;;;;;;4.60;2.50;;;;;;;18.98;63.26;99741.14;105347;1260;96610;-77
2023/09/15 12:56:57;;;;;;;7.20;2.50;;;;;;;18.97;63.19;99739.24;105063;1259;107604;-78
2023/09/15 12:59:26;;;;;;;4.30;2.10;;;;;;;18.98;63.09;99744.21;105007;1260;96635;-77
2023/09/15 13:01:55;;;;;;;4.20;2.20;;;;;;;18.97;62.81;99744.08;105112;1261;97597;-78
2023/09/15 13:04:24;;;;;;;7.00;2.70;;;;;;;18.95;62.78;99741.00;104991;1259;110137;-77
2023/09/15 13:07:00;;;;;;;4.30;2.60;;;;;;;18.96;62.86;99742.88;105166;1260;96622;-77
2023/09/15 13:09:30;;;;;;;5.90;2.30;;;;;;;18.98;62.74;99738.99;104939;1259;107333;-77
2023/09/15 13:12:00;;;;;;;3.20;2.10;;;;;;;18.99;62.59;99737.99;105342;1260;96605;-77
2023/09/15 13:14:29;;;;;;;4.80;2.30;;;;;;;18.97;62.46;99736.86;105340;1257;97188;-77
2023/09/15 13:16:58;;;;;;;6.00;2.70;;;;;;;18.98;62.42;99735.48;105409;1257;109975;-77
2023/09/15 13:19:26;;;;;;;5.00;2.30;;;;;;;18.99;62.52;99735.78;105352;1260;97789;-77
2023/09/15 13:21:53;;;;;;;5.10;2.80;;;;;;;19.01;62.22;99728.95;105420;1260;107678;-77
2023/09/15 13:24:21;;;;;;;4.80;2.40;;;;;;;19.04;62.34;99732.44;105270;1262;97976;-77
2023/09/15 13:26:49;;;;;;;7.70;2.20;;;;;;;19.06;62.28;99727.94;105369;1260;96632;-77
2023/09/15 13:29:17;;;;;;;7.40;2.50;;;;;;;19.08;62.12;99727.28;105583;1259;110404;-76
2023/09/15 13:31:45;;;;;;;4.60;2.40;;;;;;;19.08;62.01;99724.39;104945;1260;96715;-78
2023/09/15 13:34:13;;;;;;;2.80;1.70;;;;;;;19.08;61.93;99724.76;105240;1260;107300;-77
2023/09/15 13:36:41;;;;;;;4.00;2.30;;;;;;;19.07;61.85;99722.66;105128;1262;96639;-77
2023/09/15 13:39:09;;;;;;;4.50;2.30;;;;;;;19.08;61.83;99720.04;105522;1259;96617;-77
2023/09/15 13:41:37;;;;;;;7.80;2.30;;;;;;;19.08;61.50;99717.36;105357;1260;108139;-77
2023/09/15 13:44:05;;;;;;;5.30;2.40;;;;;;;19.08;61.51;99717.21;105367;1260;96620;-77
2023/09/15 13:46:36;;;;;;;5.80;2.30;;;;;;;19.07;61.54;99717.59;105166;1257;107593;-78
2023/09/15 13:49:06;;;;;;;6.20;2.00;;;;;;;19.10;61.60;99722.39;104914;1263;96599;-80
2023/09/15 13:51:35;;;;;;;3.10;2.20;;;;;;;19.09;61.39;99722.09;105321;1260;96635;-79
2023/09/15 13:54:10;;;;;;;4.00;2.20;;;;;;;19.06;61.19;99720.05;105329;1260;109500;-78
2023/09/15 13:56:38;;;;;;;4.80;2.20;;;;;;;19.06;61.24;99718.09;105019;1260;96619;-77
2023/09/15 13:59:06;;;;;;;4.70;2.30;;;;;;;19.07;61.14;99717.86;105367;1259;107757;-78
2023/09/15 14:01:37;;;;;;;8.40;2.90;;;;;;;19.08;61.22;99712.89;104949;1260;96588;-78
2023/09/15 14:04:07;;;;;;;4.20;2.60;;;;;;;19.09;61.23;99708.13;105039;1260;96602;-78
2023/09/15 14:06:36;;;;;;;6.90;2.70;;;;;;;19.08;60.85;99708.33;104981;1261;109576;-78
2023/09/15 14:09:05;;;;;;;4.60;2.00;;;;;;;19.07;60.78;99711.48;105106;1257;97827;-80
2023/09/15 14:11:33;;;;;;;8.10;2.60;;;;;;;19.06;60.63;99707.31;105289;1260;107620;-75
2023/09/15 14:14:00;;;;;;;5.00;2.70;;;;;;;19.06;60.66;99707.82;105206;1257;96643;-75
2023/09/15 14:16:28;;;;;;;4.70;2.50;;;;;;;19.05;60.58;99706.27;106202;1256;96638;-74
2023/09/15 14:18:56;;;;;;;4.00;2.30;;;;;;;19.07;60.47;99708.67;105035;1260;109452;-75
2023/09/15 14:21:24;;;;;;;6.00;2.70;;;;;;;19.07;60.39;99710.98;108244;1257;95077;-74
2023/09/15 14:23:52;;;;;;;5.70;2.00;;;;;;;19.08;60.40;99712.89;108336;1257;107223;-75
2023/09/15 14:26:20;;;;;;;6.20;2.20;;;;;;;19.07;60.11;99713.46;108265;1257;94603;-75
2023/09/15 14:28:48;;;;;;;7.90;2.10;;;;;;;19.07;60.05;99708.30;108375;1256;94368;-75
2023/09/15 14:31:16;;;;;;;3.80;2.10;;;;;;;19.08;60.09;99711.55;108343;1256;109896;-75
2023/09/15 14:33:44;;;;;;;6.80;2.70;;;;;;;19.09;60.02;99711.13;108307;1256;95016;-75
2023/09/15 14:36:12;;;;;;;6.40;3.20;;;;;;;19.10;60.06;99709.08;108146;1256;108599;-74
2023/09/15 14:38:40;;;;;;;6.40;2.90;;;;;;;19.09;59.96;99707.77;108309;1256;94481;-75
2023/09/15 14:41:08;;;;;;;5.30;2.80;;;;;;;19.08;59.70;99707.61;108201;1256;95698;-74
2023/09/15 14:43:36;;;;;;;8.90;4.00;;;;;;;19.08;59.63;99705.11;104827;1260;109651;-74
2023/09/15 14:46:03;;;;;;;6.60;3.10;;;;;;;19.08;59.27;99706.93;104975;1260;96523;-75
2023/09/15 14:48:31;;;;;;;6.10;3.00;;;;;;;19.07;59.54;99707.34;104988;1256;109378;-75
2023/09/15 14:50:59;;;;;;;3.50;2.20;;;;;;;19.07;59.63;99707.76;105161;1257;96607;-75
2023/09/15 14:53:28;;;;;;;7.40;2.40;;;;;;;19.04;59.38;99706.41;104796;1259;96616;-75
2023/09/15 14:55:56;;;;;;;6.70;3.20;;;;;;;19.02;59.39;99704.04;104994;1260;110356;-75
2023/09/15 14:58:24;;;;;;;7.60;2.70;;;;;;;19.01;59.42;99703.62;105122;1260;96697;-74
2023/09/15 15:00:52;;;;;;;2.80;1.70;;;;;;;19.00;59.37;99704.44;105021;1261;107293;-75
2023/09/15 15:03:19;;;;;;;4.00;2.40;;;;;;;18.98;59.24;99705.14;105261;1257;96690;-74
2023/09/15 15:05:47;;;;;;;8.60;2.90;;;;;;;18.97;59.14;99702.45;105063;1258;96625;-74
2023/09/15 15:08:15;;;;;;;5.40;2.90;;;;;;;18.95;59.15;99701.33;105067;1260;111023;-74
2023/09/15 15:10:43;;;;;;;7.50;2.70;;;;;;;18.92;59.08;99697.86;105112;1260;97858;-74
2023/09/15 15:13:11;;;;;;;3.20;1.90;;;;;;;18.88;58.99;99695.66;105142;1257;107223;-74
2023/09/15 15:15:43;;;;;;;9.60;3.50;;;;;;;18.84;58.75;99695.37;104820;1256;96424;-75
2023/09/15 15:18:19;;;;;;;7.30;2.80;;;;;;;18.81;58.78;99694.20;104935;1257;96617;-73
2023/09/15 15:20:47;;;;;;;3.40;2.40;;;;;;;18.80;58.93;99694.48;104980;1256;110070;-74
2023/09/15 15:23:15;;;;;;;4.70;2.50;;;;;;;18.78;58.73;99690.34;104966;1260;96899;-74
2023/09/15 15:25:43;;;;;;;5.20;2.00;;;;;;;18.77;58.84;99692.08;104703;1270;106045;-74
2023/09/15 15:28:11;;;;;;;4.10;2.20;;;;;;;18.76;58.83;99692.57;105329;1260;96705;-74
2023/09/15 15:30:39;;;;;;;5.40;2.70;;;;;;;18.75;58.76;99692.47;105166;1260;96731;-74
2023/09/15 15:33:07;;;;;;;4.20;2.30;;;;;;;18.73;58.84;99694.41;105191;1262;110005;-73
2023/09/15 15:35:35;;;;;;;4.20;2.20;;;;;;;18.72;58.85;99692.02;105208;1256;97105;-74
2023/09/15 15:38:03;;;;;;;4.30;2.20;;;;;;;18.70;58.73;99695.44;105235;1262;107675;-74
2023/09/15 15:40:32;;;;;;;5.50;2.50;;;;;;;18.68;58.73;99694.88;104970;1262;97970;-75
2023/09/15 15:43:00;;;;;;;5.90;2.60;;;;;;;18.67;58.91;99695.20;105081;1256;96964;-74
2023/09/15 15:45:28;;;;;;;6.40;2.50;;;;;;;18.66;58.83;99692.60;104847;1256;109453;-74
2023/09/15 15:47:56;;;;;;;3.50;2.20;;;;;;;18.66;58.79;99693.39;105123;1260;96610;-74
2023/09/15 15:50:24;;;;;;;6.60;2.30;;;;;;;18.64;58.77;99691.41;104947;1269;108337;-74
2023/09/15 15:52:52;;;;;;;6.40;2.60;;;;;;;18.61;58.78;99691.41;105164;1260;96533;-74
2023/09/15 15:55:23;;;;;;;3.70;2.20;;;;;;;18.58;58.89;99693.85;105140;1259;96702;-75
2023/09/15 15:57:51;;;;;;;5.90;2.50;;;;;;;18.54;58.83;99694.06;104808;1258;109942;-75
2023/09/15 16:00:19;;;;;;;6.20;2.30;;;;;;;18.53;58.89;99698.55;105163;1263;96600;-75
2023/09/15 16:02:47;;;;;;;7.50;2.40;;;;;;;18.49;58.95;99697.65;104861;1265;107678;-74
2023/09/15 16:05:15;;;;;;;5.60;2.60;;;;;;;18.47;58.96;99698.23;104993;1262;96609;-75
2023/09/15 16:07:43;;;;;;;4.50;2.30;;;;;;;18.44;59.00;99698.86;105235;1256;96731;-74
2023/09/15 16:10:12;;;;;;;5.10;2.80;;;;;;;18.39;58.99;99698.39;104926;1256;110278;-74
2023/09/15 16:12:40;;;;;;;6.50;3.00;;;;;;;18.35;58.99;99700.73;105338;1257;97528;-75
2023/09/15 16:15:08;;;;;;;8.40;3.10;;;;;;;18.30;59.12;99703.39;104908;1262;107240;-74
2023/09/15 16:17:36;;;;;;;10.00;2.70;;;;;;;18.26;59.12;99705.79;104844;1262;97741;-74
2023/09/15 16:20:04;;;;;;;8.00;2.80;;;;;;;18.20;59.11;99705.98;105447;1257;96531;-74
2023/09/15 16:22:33;;;;;;;8.20;2.80;;;;;;;18.13;59.25;99704.48;105149;1260;109250;-75
2023/09/15 16:25:00;;;;;;;8.30;3.30;;;;;;;18.07;59.31;99704.49;105077;1260;96566;-74
2023/09/15 16:27:28;;;;;;;8.30;2.80;;;;;;;18.01;59.28;99705.56;105682;1256;107539;-75
2023/09/15 16:29:58;;;;;;;11.10;3.30;;;;;;;17.93;59.31;99708.27;105465;1260;96600;-74
2023/09/15 16:32:26;;;;;;;6.70;3.30;;;;;;;17.86;59.42;99712.68;105292;1257;98066;-74
2023/09/15 16:34:57;;;;;;;6.00;3.00;;;;;;;17.79;59.68;99710.83;104811;1260;110135;-74
2023/09/15 16:37:25;;;;;;;8.10;2.90;;;;;;;17.71;59.65;99714.20;105077;1262;96616;-74
2023/09/15 16:39:53;;;;;;;4.70;2.80;;;;;;;17.64;59.59;99716.31;105069;1262;107135;-75
2023/09/15 16:42:21;;;;;;;7.20;2.80;;;;;;;17.57;59.82;99720.74;105017;1257;97238;-74
2023/09/15 16:44:49;;;;;;;5.30;2.80;;;;;;;17.48;59.80;99719.36;105127;1259;96576;-74